Time;durP1;ratioP1;P1;durP2;ratioP2;P2;SDS_P1;SDS_P2;PMS_P1;PMS_P2;Temp;Humidity;BMP_temperature;BMP_pressure;BME280_temperature;BME280_humidity;BME280_pressure;Samples;Min_cycle;Max_cycle;Signal;HPM_P1;HPM_P2
2021/09/25 00:01:20;;;;;;;;;23.75;18.25;;;;;;;;5059789;27;50017;-78
2021/09/25 00:03:46;;;;;;;;;21.00;17.50;;;;;;;;5048591;27;45778;-78
2021/09/25 00:06:11;;;;;;;;;25.67;21.00;;;;;;;;5051820;27;45604;-78
2021/09/25 00:08:37;;;;;;;;;18.50;18.00;;;;;;;;5055210;28;50971;-78
2021/09/25 00:11:02;;;;;;;;;19.33;14.33;;;;;;;;5048884;28;46047;-78
2021/09/25 00:13:27;;;;;;;;;23.00;18.75;;;;;;;;5050398;28;45818;-78
2021/09/25 00:15:52;;;;;;;;;24.00;19.00;;;;;;;;5049287;28;45546;-78
2021/09/25 00:18:18;;;;;;;;;17.50;17.00;;;;;;;;5051357;27;46018;-78
2021/09/25 00:20:43;;;;;;;;;17.25;16.25;;;;;;;;5051125;28;46569;-79
2021/09/25 00:23:08;;;;;;;;;22.75;16.75;;;;;;;;5048937;28;45473;-78
2021/09/25 00:25:34;;;;;;;;;19.50;15.25;;;;;;;;5038929;28;47409;-78
2021/09/25 00:27:59;;;;;;;;;20.33;18.67;;;;;;;;5049251;28;45909;-78
2021/09/25 00:30:24;;;;;;;;;23.25;14.75;;;;;;;;5043383;28;45645;-79
2021/09/25 00:32:51;;;;;;;;;20.00;16.50;;;;;;;;5041616;28;45604;-78
2021/09/25 00:35:16;;;;;;;;;21.25;18.25;;;;;;;;5035922;28;46364;-78
2021/09/25 00:37:42;;;;;;;;;18.50;17.25;;;;;;;;5030579;28;49999;-78
2021/09/25 00:40:08;;;;;;;;;24.25;18.25;;;;;;;;5037825;28;45749;-79
2021/09/25 00:42:33;;;;;;;;;23.25;20.75;;;;;;;;5031219;28;45649;-78
2021/09/25 00:44:59;;;;;;;;;20.50;17.75;;;;;;;;5041234;28;45437;-78
2021/09/25 00:47:24;;;;;;;;;23.25;20.50;;;;;;;;5046604;28;46079;-79
2021/09/25 00:49:49;;;;;;;;;20.00;15.33;;;;;;;;5051646;28;60347;-79
2021/09/25 00:52:14;;;;;;;;;20.25;16.75;;;;;;;;5050960;27;50949;-79
2021/09/25 00:54:40;;;;;;;;;20.50;16.50;;;;;;;;5051859;27;46073;-79
2021/09/25 00:57:05;;;;;;;;;27.00;20.00;;;;;;;;5054165;28;45716;-79
2021/09/25 00:59:31;;;;;;;;;21.00;19.25;;;;;;;;5049530;27;45600;-79
2021/09/25 01:01:57;;;;;;;;;18.25;16.50;;;;;;;;5053813;28;45600;-79
2021/09/25 01:04:22;;;;;;;;;24.75;21.00;;;;;;;;5052675;28;45861;-79
2021/09/25 01:06:47;;;;;;;;;21.50;18.50;;;;;;;;5044973;27;45736;-79
2021/09/25 01:09:13;;;;;;;;;22.00;21.00;;;;;;;;5048077;28;46412;-78
2021/09/25 01:11:38;;;;;;;;;19.50;17.75;;;;;;;;5048953;28;45480;-79
2021/09/25 01:14:03;;;;;;;;;21.00;17.50;;;;;;;;5036508;28;45630;-79
2021/09/25 01:16:29;;;;;;;;;22.25;19.00;;;;;;;;5032386;28;47502;-79
2021/09/25 01:21:29;;;;;;;;;20.75;19.00;;;;;;;;5022893;22;45599;-78
2021/09/25 01:23:55;;;;;;;;;19.25;18.75;;;;;;;;5028746;28;46438;-79
2021/09/25 01:26:20;;;;;;;;;20.75;19.50;;;;;;;;5031914;28;45836;-78
2021/09/25 01:28:46;;;;;;;;;24.75;19.00;;;;;;;;5028420;28;45657;-79
2021/09/25 01:31:13;;;;;;;;;24.00;22.50;;;;;;;;5033896;28;45522;-78
2021/09/25 01:33:40;;;;;;;;;20.75;19.00;;;;;;;;5031853;28;45682;-79
2021/09/25 01:36:06;;;;;;;;;23.75;20.00;;;;;;;;5035401;28;45615;-79
2021/09/25 01:38:32;;;;;;;;;22.25;15.75;;;;;;;;5028477;28;46261;-78
2021/09/25 01:40:57;;;;;;;;;21.25;20.50;;;;;;;;5026183;28;45656;-79
2021/09/25 01:43:22;;;;;;;;;20.50;18.00;;;;;;;;5028007;28;45567;-79
2021/09/25 01:45:47;;;;;;;;;20.00;17.75;;;;;;;;5034798;28;45494;-79
2021/09/25 01:48:13;;;;;;;;;22.75;20.50;;;;;;;;5037825;28;45600;-78
2021/09/25 01:50:39;;;;;;;;;22.00;18.00;;;;;;;;5034627;28;45627;-78
2021/09/25 01:53:05;;;;;;;;;18.25;16.50;;;;;;;;5030495;28;45583;-79
2021/09/25 01:55:30;;;;;;;;;25.25;17.75;;;;;;;;5035629;28;48119;-79
2021/09/25 01:57:55;;;;;;;;;18.67;17.33;;;;;;;;5029082;28;46341;-79
2021/09/25 02:00:21;;;;;;;;;20.50;17.50;;;;;;;;5033591;28;45627;-79
2021/09/25 02:02:46;;;;;;;;;21.75;17.00;;;;;;;;5030460;28;45699;-80
2021/09/25 02:05:15;;;;;;;;;20.50;19.00;;;;;;;;5026633;28;45781;-79
2021/09/25 02:07:40;;;;;;;;;22.75;19.50;;;;;;;;5029920;28;45503;-79
2021/09/25 02:10:05;;;;;;;;;18.75;16.25;;;;;;;;5032722;28;45765;-79
2021/09/25 02:15:23;;;;;;;;;18.75;15.00;;;;;;;;5075743;22;45662;-78
2021/09/25 02:17:48;;;;;;;;;17.75;16.25;;;;;;;;5069765;27;45422;-78
2021/09/25 02:20:13;;;;;;;;;19.00;16.50;;;;;;;;5047631;27;45668;-78
2021/09/25 02:22:39;;;;;;;;;22.75;18.25;;;;;;;;5069736;27;46295;-78
2021/09/25 02:25:06;;;;;;;;;17.50;15.50;;;;;;;;5069689;27;46325;-78
2021/09/25 02:27:32;;;;;;;;;21.00;16.75;;;;;;;;5304482;22;45957;-79
2021/09/25 02:29:58;;;;;;;;;15.50;14.75;;;;;;;;5044117;28;48839;-78
2021/09/25 02:32:23;;;;;;;;;26.50;21.00;;;;;;;;5030388;28;46647;-78
2021/09/25 02:34:48;;;;;;;;;18.33;16.00;;;;;;;;5062690;28;45573;-79
2021/09/25 02:37:13;;;;;;;;;20.67;19.67;;;;;;;;5033630;28;45839;-78
2021/09/25 02:39:38;;;;;;;;;18.00;17.67;;;;;;;;5036538;27;49333;-78
2021/09/25 02:42:04;;;;;;;;;18.67;16.33;;;;;;;;5038604;28;45802;-79
2021/09/25 02:44:29;;;;;;;;;23.00;17.75;;;;;;;;5056025;28;48245;-77
2021/09/25 02:46:55;;;;;;;;;20.00;16.33;;;;;;;;5060380;27;45576;-77
2021/09/25 02:49:20;;;;;;;;;20.25;18.75;;;;;;;;5058828;28;46855;-77
2021/09/25 02:51:46;;;;;;;;;20.50;18.50;;;;;;;;5057975;27;46846;-77
2021/09/25 02:54:12;;;;;;;;;23.75;20.00;;;;;;;;5062763;27;46192;-77
2021/09/25 02:56:37;;;;;;;;;17.75;17.50;;;;;;;;5058608;28;46199;-77
2021/09/25 02:59:03;;;;;;;;;21.50;15.50;;;;;;;;5059100;28;45594;-77
2021/09/25 03:01:28;;;;;;;;;20.25;18.25;;;;;;;;5058309;27;45756;-77
2021/09/25 03:03:54;;;;;;;;;22.00;19.33;;;;;;;;5057328;28;46122;-77
2021/09/25 03:06:28;;;;;;;;;20.00;17.25;;;;;;;;5062956;27;45565;-77
2021/09/25 03:08:54;;;;;;;;;25.25;20.00;;;;;;;;5061696;28;46782;-77
2021/09/25 03:11:19;;;;;;;;;26.67;20.67;;;;;;;;5040314;27;46946;-77
2021/09/25 03:13:45;;;;;;;;;20.75;17.75;;;;;;;;5058797;28;45674;-78
2021/09/25 03:16:11;;;;;;;;;18.75;18.75;;;;;;;;5040162;28;45718;-77
2021/09/25 03:18:36;;;;;;;;;23.75;19.25;;;;;;;;5035995;28;45626;-77
2021/09/25 03:21:01;;;;;;;;;23.67;20.67;;;;;;;;5063642;27;46772;-77
2021/09/25 03:23:26;;;;;;;;;21.33;18.67;;;;;;;;5038689;28;47143;-78
2021/09/25 03:25:52;;;;;;;;;20.50;18.50;;;;;;;;5058481;27;53666;-78
2021/09/25 03:28:17;;;;;;;;;21.25;19.25;;;;;;;;5056250;27;45507;-77
2021/09/25 03:30:42;;;;;;;;;26.33;18.00;;;;;;;;5048796;28;45598;-77
2021/09/25 03:33:08;;;;;;;;;24.75;23.50;;;;;;;;5059020;28;46141;-77
2021/09/25 03:35:33;;;;;;;;;22.75;20.75;;;;;;;;5044822;28;45736;-77
2021/09/25 03:38:00;;;;;;;;;24.25;20.00;;;;;;;;5031636;28;45487;-78
2021/09/25 03:40:25;;;;;;;;;22.00;21.25;;;;;;;;5026000;28;45623;-77
2021/09/25 03:42:50;;;;;;;;;20.00;20.00;;;;;;;;5046132;28;46047;-77
2021/09/25 03:45:16;;;;;;;;;22.25;21.00;;;;;;;;5049290;28;47937;-77
2021/09/25 03:47:41;;;;;;;;;28.33;18.67;;;;;;;;5043870;28;45952;-77
2021/09/25 03:50:07;;;;;;;;;22.75;21.00;;;;;;;;5040320;28;45527;-77
2021/09/25 03:52:32;;;;;;;;;23.50;19.25;;;;;;;;5045612;28;45957;-78
2021/09/25 03:54:57;;;;;;;;;23.75;19.50;;;;;;;;5035820;28;46304;-78
2021/09/25 03:57:23;;;;;;;;;24.00;22.00;;;;;;;;5048395;28;45908;-77
2021/09/25 03:59:48;;;;;;;;;22.00;19.00;;;;;;;;5045807;28;45537;-77
2021/09/25 04:02:13;;;;;;;;;23.67;21.00;;;;;;;;5026887;28;47029;-77
2021/09/25 04:04:38;;;;;;;;;25.67;22.67;;;;;;;;5021903;28;46413;-78
2021/09/25 04:07:04;;;;;;;;;28.33;19.00;;;;;;;;5023657;28;45712;-77
2021/09/25 04:09:29;;;;;;;;;23.00;20.67;;;;;;;;5028114;28;45608;-77
2021/09/25 04:14:29;;;;;;;;;24.75;20.25;;;;;;;;5198346;22;46603;-78
2021/09/25 04:16:54;;;;;;;;;20.33;19.00;;;;;;;;5046881;27;46628;-78
2021/09/25 04:19:20;;;;;;;;;23.00;21.25;;;;;;;;5049352;28;45891;-77
2021/09/25 04:21:46;;;;;;;;;28.00;20.50;;;;;;;;5041634;27;45861;-78
2021/09/25 04:24:11;;;;;;;;;19.00;16.75;;;;;;;;5053875;27;45599;-78
2021/09/25 04:26:37;;;;;;;;;20.67;18.33;;;;;;;;5046536;27;47823;-79
2021/09/25 04:29:02;;;;;;;;;23.25;16.75;;;;;;;;5044638;27;45644;-78
2021/09/25 04:31:27;;;;;;;;;27.75;22.00;;;;;;;;5041578;28;45766;-78
2021/09/25 04:33:53;;;;;;;;;22.75;20.00;;;;;;;;5044908;28;46238;-78
2021/09/25 04:36:18;;;;;;;;;28.00;21.50;;;;;;;;5045434;28;45515;-78
2021/09/25 04:38:43;;;;;;;;;29.00;23.25;;;;;;;;5051117;28;45638;-78
2021/09/25 04:41:09;;;;;;;;;26.75;22.50;;;;;;;;5041805;28;47579;-79
2021/09/25 04:43:34;;;;;;;;;31.75;25.00;;;;;;;;5040701;28;46243;-77
2021/09/25 04:45:59;;;;;;;;;25.75;20.50;;;;;;;;5042808;28;45655;-77
2021/09/25 04:48:24;;;;;;;;;23.50;20.00;;;;;;;;5046205;27;55982;-77
2021/09/25 04:50:50;;;;;;;;;30.33;27.00;;;;;;;;5053772;28;46066;-77
2021/09/25 04:53:15;;;;;;;;;25.50;21.25;;;;;;;;5050750;27;45492;-78
2021/09/25 04:55:44;;;;;;;;;27.25;22.75;;;;;;;;5049050;28;50542;-77
2021/09/25 04:58:10;;;;;;;;;30.50;24.00;;;;;;;;5052225;28;45663;-77
2021/09/25 05:03:10;;;;;;;;;33.25;26.50;;;;;;;;5261977;22;46182;-80
2021/09/25 05:05:35;;;;;;;;;21.67;21.00;;;;;;;;5025176;28;46925;-78
2021/09/25 05:08:01;;;;;;;;;25.50;20.50;;;;;;;;5028016;28;45936;-79
2021/09/25 05:10:26;;;;;;;;;24.33;20.67;;;;;;;;5026979;28;46306;-78
2021/09/25 05:12:51;;;;;;;;;23.50;21.75;;;;;;;;5021327;28;45499;-78
2021/09/25 05:15:17;;;;;;;;;30.00;20.75;;;;;;;;5026913;28;45650;-78
2021/09/25 05:17:42;;;;;;;;;20.50;19.00;;;;;;;;5031876;28;45559;-78
2021/09/25 05:20:08;;;;;;;;;26.75;20.75;;;;;;;;5031552;28;45494;-78
2021/09/25 05:22:33;;;;;;;;;23.50;20.75;;;;;;;;5026974;28;45447;-78
2021/09/25 05:24:59;;;;;;;;;20.75;20.75;;;;;;;;5037578;28;45791;-78
2021/09/25 05:27:24;;;;;;;;;31.25;22.50;;;;;;;;5030231;28;45668;-78
2021/09/25 05:29:49;;;;;;;;;23.75;21.00;;;;;;;;5033006;28;45543;-78
2021/09/25 05:32:15;;;;;;;;;21.67;19.67;;;;;;;;5032363;28;45387;-79
2021/09/25 05:34:42;;;;;;;;;24.75;22.25;;;;;;;;5029903;28;49190;-78
2021/09/25 05:37:07;;;;;;;;;28.00;20.75;;;;;;;;5038690;28;45763;-78
2021/09/25 05:39:33;;;;;;;;;26.25;24.25;;;;;;;;5026776;28;46508;-78
2021/09/25 05:41:58;;;;;;;;;24.50;19.00;;;;;;;;5040372;28;47326;-78
2021/09/25 05:44:23;;;;;;;;;22.67;21.33;;;;;;;;5028042;28;51442;-78
2021/09/25 05:46:48;;;;;;;;;27.33;23.00;;;;;;;;5028318;28;46687;-79
2021/09/25 05:49:14;;;;;;;;;23.75;18.75;;;;;;;;5031974;28;45571;-78
2021/09/25 05:51:39;;;;;;;;;27.25;24.25;;;;;;;;5030521;28;45804;-78
2021/09/25 05:54:04;;;;;;;;;22.75;21.25;;;;;;;;5037707;28;45804;-78
2021/09/25 05:56:30;;;;;;;;;21.67;20.33;;;;;;;;5033430;28;45610;-78
2021/09/25 05:58:55;;;;;;;;;23.25;22.00;;;;;;;;5033700;28;52692;-78
2021/09/25 06:01:20;;;;;;;;;26.33;23.67;;;;;;;;5031570;28;45569;-79
2021/09/25 06:03:45;;;;;;;;;21.50;19.00;;;;;;;;5027257;28;45578;-78
2021/09/25 06:06:11;;;;;;;;;22.33;22.00;;;;;;;;5029274;28;46895;-78
2021/09/25 06:08:36;;;;;;;;;24.67;19.67;;;;;;;;5038149;28;47575;-78
2021/09/25 06:11:01;;;;;;;;;28.67;24.67;;;;;;;;5034855;28;52375;-78
2021/09/25 06:13:26;;;;;;;;;25.00;23.50;;;;;;;;5032848;28;45929;-78
2021/09/25 06:15:51;;;;;;;;;24.00;22.33;;;;;;;;5032964;28;45911;-78
2021/09/25 06:18:17;;;;;;;;;23.00;19.33;;;;;;;;5038801;28;47162;-77
2021/09/25 06:20:42;;;;;;;;;23.67;23.33;;;;;;;;5029822;28;45541;-78
2021/09/25 06:23:07;;;;;;;;;24.75;20.75;;;;;;;;5038428;28;52817;-79
2021/09/25 06:25:33;;;;;;;;;22.25;19.50;;;;;;;;5032146;28;46131;-79
2021/09/25 06:27:58;;;;;;;;;25.00;20.75;;;;;;;;5025951;28;46782;-78
2021/09/25 06:30:23;;;;;;;;;28.67;24.67;;;;;;;;5028030;28;46051;-78
2021/09/25 06:32:49;;;;;;;;;25.50;23.75;;;;;;;;5038271;28;45627;-78
2021/09/25 06:35:15;;;;;;;;;25.50;21.75;;;;;;;;5030789;28;45788;-78
2021/09/25 06:37:41;;;;;;;;;26.00;21.00;;;;;;;;5037559;28;46064;-78
2021/09/25 06:40:07;;;;;;;;;24.75;20.25;;;;;;;;5034385;28;45677;-79
2021/09/25 06:42:33;;;;;;;;;27.50;24.25;;;;;;;;5035719;28;47947;-77
2021/09/25 06:44:58;;;;;;;;;30.25;26.50;;;;;;;;5030452;28;45560;-78
2021/09/25 06:47:23;;;;;;;;;34.67;26.00;;;;;;;;5033992;28;46013;-79
2021/09/25 06:49:48;;;;;;;;;26.33;23.00;;;;;;;;5031271;28;45669;-78
2021/09/25 06:52:14;;;;;;;;;31.00;28.33;;;;;;;;5032490;28;52495;-78
2021/09/25 06:54:39;;;;;;;;;29.50;25.50;;;;;;;;5027062;28;45757;-78
2021/09/25 06:57:05;;;;;;;;;30.00;25.50;;;;;;;;5033559;28;46105;-78
2021/09/25 06:59:30;;;;;;;;;32.25;26.50;;;;;;;;5038882;28;45568;-78
2021/09/25 07:01:55;;;;;;;;;35.00;29.75;;;;;;;;5035345;28;45626;-78
2021/09/25 07:06:48;;;;;;;;;41.00;31.00;;;;;;;;5033345;22;45706;-78
2021/09/25 07:09:14;;;;;;;;;30.33;27.00;;;;;;;;5027829;28;45561;-77
2021/09/25 07:11:39;;;;;;;;;33.25;25.00;;;;;;;;5032779;28;53100;-78
2021/09/25 07:14:04;;;;;;;;;32.25;28.25;;;;;;;;5033819;28;45664;-77
2021/09/25 07:16:29;;;;;;;;;35.33;27.00;;;;;;;;5017297;28;48532;-77
2021/09/25 07:18:55;;;;;;;;;36.25;29.50;;;;;;;;5028007;28;45923;-78
2021/09/25 07:21:20;;;;;;;;;34.75;29.50;;;;;;;;5012233;28;46827;-77
2021/09/25 07:23:45;;;;;;;;;41.00;28.67;;;;;;;;5026137;28;46030;-77
2021/09/25 07:26:11;;;;;;;;;39.25;31.00;;;;;;;;5028546;28;46494;-77
2021/09/25 07:28:36;;;;;;;;;33.75;27.25;;;;;;;;5025986;28;45513;-77
2021/09/25 07:31:02;;;;;;;;;35.25;31.00;;;;;;;;5034739;28;45535;-77
2021/09/25 07:33:27;;;;;;;;;26.50;25.75;;;;;;;;5029171;28;45658;-77
2021/09/25 07:35:53;;;;;;;;;33.75;29.00;;;;;;;;5018092;28;48107;-77
2021/09/25 07:38:18;;;;;;;;;35.25;31.00;;;;;;;;5027717;28;45467;-77
2021/09/25 07:40:43;;;;;;;;;32.50;30.00;;;;;;;;5008932;28;46454;-77
2021/09/25 07:43:08;;;;;;;;;36.00;25.00;;;;;;;;5023021;28;45904;-77
2021/09/25 07:45:34;;;;;;;;;34.50;31.50;;;;;;;;5025703;28;45834;-78
2021/09/25 07:47:59;;;;;;;;;36.50;31.25;;;;;;;;5029852;28;45486;-78
2021/09/25 07:50:31;;;;;;;;;38.67;34.00;;;;;;;;5149111;22;45509;-93
2021/09/25 07:52:56;;;;;;;;;40.50;33.00;;;;;;;;5068741;22;45698;-78
2021/09/25 07:55:22;;;;;;;;;39.50;35.25;;;;;;;;5025643;28;48216;-78
2021/09/25 07:57:47;;;;;;;;;39.00;30.50;;;;;;;;5041958;28;45766;-78
2021/09/25 08:00:13;;;;;;;;;31.00;28.33;;;;;;;;5048042;28;45615;-78
2021/09/25 08:02:40;;;;;;;;;31.25;26.50;;;;;;;;5044152;28;46230;-78
2021/09/25 08:05:06;;;;;;;;;32.50;29.25;;;;;;;;5047189;28;46055;-77
2021/09/25 08:07:31;;;;;;;;;37.25;32.50;;;;;;;;5033628;28;45775;-78
2021/09/25 08:09:56;;;;;;;;;38.33;33.33;;;;;;;;5045455;27;45685;-78
2021/09/25 08:12:21;;;;;;;;;33.75;29.25;;;;;;;;5044759;28;45598;-78
2021/09/25 08:14:47;;;;;;;;;39.00;34.00;;;;;;;;5042467;28;47521;-78
2021/09/25 08:17:12;;;;;;;;;37.67;33.00;;;;;;;;5027312;28;47519;-78
2021/09/25 08:19:37;;;;;;;;;41.00;32.00;;;;;;;;5047572;27;46787;-78
2021/09/25 08:22:03;;;;;;;;;33.00;29.00;;;;;;;;5038565;28;45872;-78
2021/09/25 08:24:28;;;;;;;;;42.25;34.75;;;;;;;;5043661;28;46166;-78
2021/09/25 08:26:53;;;;;;;;;33.00;29.75;;;;;;;;5045404;28;45575;-78
2021/09/25 08:29:18;;;;;;;;;32.33;31.00;;;;;;;;5033069;27;45716;-78
2021/09/25 08:31:43;;;;;;;;;38.50;29.50;;;;;;;;5049336;28;52294;-77
2021/09/25 08:34:09;;;;;;;;;34.67;29.67;;;;;;;;5050972;28;46141;-78
2021/09/25 08:36:34;;;;;;;;;38.00;28.75;;;;;;;;5044717;28;45770;-78
2021/09/25 08:38:59;;;;;;;;;34.00;28.75;;;;;;;;5046997;28;45516;-78
2021/09/25 08:41:25;;;;;;;;;38.33;29.67;;;;;;;;5048585;27;45833;-78
2021/09/25 08:43:51;;;;;;;;;34.25;29.25;;;;;;;;5047090;27;46854;-77
2021/09/25 08:46:16;;;;;;;;;32.75;28.50;;;;;;;;5055658;28;45547;-77
2021/09/25 08:48:42;;;;;;;;;32.00;26.00;;;;;;;;5042430;27;45607;-77
2021/09/25 08:51:09;;;;;;;;;31.00;27.75;;;;;;;;5047475;28;45927;-77
2021/09/25 08:53:34;;;;;;;;;34.50;29.50;;;;;;;;5051699;27;45801;-77
2021/09/25 08:55:59;;;;;;;;;33.25;25.25;;;;;;;;5048435;28;46138;-77
2021/09/25 08:58:25;;;;;;;;;33.67;27.00;;;;;;;;5030472;28;45698;-77
2021/09/25 09:00:51;;;;;;;;;29.33;27.33;;;;;;;;5040035;28;46049;-77
2021/09/25 09:03:33;;;;;;;;;28.25;24.50;;;;;;;;5053074;28;47081;-78
2021/09/25 09:06:13;;;;;;;;;39.50;28.50;;;;;;;;5056430;28;46527;-77
2021/09/25 09:08:39;;;;;;;;;28.75;24.75;;;;;;;;5048290;27;46860;-77
2021/09/25 09:11:06;;;;;;;;;28.50;25.50;;;;;;;;5047038;28;45930;-77
2021/09/25 09:13:32;;;;;;;;;29.25;28.00;;;;;;;;5052776;28;45938;-77
2021/09/25 09:16:00;;;;;;;;;33.75;31.00;;;;;;;;5059787;27;45817;-77
2021/09/25 09:18:25;;;;;;;;;36.50;29.25;;;;;;;;5049250;27;45637;-77
2021/09/25 09:21:01;;;;;;;;;28.25;27.50;;;;;;;;5052645;28;52683;-77
2021/09/25 09:23:27;;;;;;;;;30.75;24.50;;;;;;;;5053109;27;45873;-77
2021/09/25 09:25:52;;;;;;;;;28.50;26.00;;;;;;;;5040727;28;45662;-77
2021/09/25 09:28:22;;;;;;;;;31.67;26.33;;;;;;;;5030786;28;46466;-77
2021/09/25 09:30:49;;;;;;;;;27.00;22.50;;;;;;;;5031775;28;45752;-78
2021/09/25 09:33:33;;;;;;;;;27.00;23.50;;;;;;;;5053132;28;45622;-77
2021/09/25 09:36:11;;;;;;;;;24.75;24.50;;;;;;;;5043088;28;46033;-77
2021/09/25 09:38:40;;;;;;;;;36.50;29.75;;;;;;;;5047776;28;45703;-78
2021/09/25 09:41:05;;;;;;;;;30.25;26.00;;;;;;;;5050410;27;46206;-77
2021/09/25 09:43:30;;;;;;;;;33.00;26.67;;;;;;;;5029360;28;48721;-78
2021/09/25 09:45:58;;;;;;;;;31.75;27.00;;;;;;;;5045238;27;46857;-78
2021/09/25 09:48:23;;;;;;;;;37.75;29.50;;;;;;;;5049721;27;45437;-77
2021/09/25 09:50:50;;;;;;;;;30.67;26.33;;;;;;;;5050250;28;45402;-77
2021/09/25 09:53:16;;;;;;;;;27.75;26.25;;;;;;;;5058172;28;46243;-77
2021/09/25 09:55:42;;;;;;;;;33.25;30.25;;;;;;;;5206777;22;46901;-78
2021/09/25 09:58:07;;;;;;;;;30.00;25.00;;;;;;;;5054363;28;46814;-77
2021/09/25 10:00:33;;;;;;;;;28.75;26.75;;;;;;;;5050755;27;45373;-78
2021/09/25 10:02:59;;;;;;;;;30.25;25.75;;;;;;;;5050143;28;46149;-77
2021/09/25 10:05:24;;;;;;;;;23.00;23.00;;;;;;;;5034576;28;46393;-77
2021/09/25 10:07:50;;;;;;;;;28.67;24.00;;;;;;;;5037466;28;45714;-77
2021/09/25 10:10:15;;;;;;;;;28.75;24.50;;;;;;;;5046360;27;45992;-77
2021/09/25 10:12:40;;;;;;;;;28.75;23.25;;;;;;;;5052756;27;47664;-77
2021/09/25 10:15:06;;;;;;;;;24.50;23.00;;;;;;;;5039087;28;45487;-77
2021/09/25 10:17:31;;;;;;;;;22.75;22.75;;;;;;;;5040577;27;46944;-77
2021/09/25 10:19:59;;;;;;;;;24.75;21.50;;;;;;;;5046376;27;46981;-77
2021/09/25 10:22:29;;;;;;;;;26.00;21.25;;;;;;;;5030854;28;48555;-77
2021/09/25 10:24:58;;;;;;;;;24.75;22.50;;;;;;;;5047907;27;45515;-77
2021/09/25 10:27:28;;;;;;;;;24.00;20.75;;;;;;;;5052277;28;45703;-78
2021/09/25 10:29:53;;;;;;;;;22.75;21.75;;;;;;;;5038999;28;45608;-78
2021/09/25 10:32:23;;;;;;;;;20.00;19.25;;;;;;;;5053512;27;45955;-77
2021/09/25 10:35:04;;;;;;;;;27.50;21.00;;;;;;;;5040788;28;46268;-77
2021/09/25 10:39:58;;;;;;;;;19.00;17.00;;;;;;;;5002815;22;46620;-78
2021/09/25 10:42:44;;;;;;;;;19.00;18.50;;;;;;;;5073214;27;45505;-77
2021/09/25 10:45:12;;;;;;;;;22.25;20.25;;;;;;;;5071144;27;45670;-77
2021/09/25 10:47:38;;;;;;;;;18.75;17.00;;;;;;;;5070045;27;45420;-78
2021/09/25 10:50:09;;;;;;;;;24.25;19.25;;;;;;;;5070677;27;45545;-77
2021/09/25 10:53:05;;;;;;;;;19.50;18.50;;;;;;;;5066365;27;46203;-78
2021/09/25 10:55:31;;;;;;;;;21.25;20.00;;;;;;;;5067385;27;45561;-78
2021/09/25 10:58:15;;;;;;;;;25.25;23.00;;;;;;;;5070332;27;45768;-77
2021/09/25 11:00:57;;;;;;;;;24.75;20.50;;;;;;;;5068281;27;45582;-78
2021/09/25 11:03:44;;;;;;;;;23.50;20.00;;;;;;;;5073976;27;47803;-77
2021/09/25 11:06:13;;;;;;;;;23.25;18.75;;;;;;;;5069983;27;45589;-77
2021/09/25 11:08:48;;;;;;;;;19.50;18.50;;;;;;;;5065114;27;48266;-77
2021/09/25 11:11:14;;;;;;;;;21.00;17.50;;;;;;;;5067332;27;45632;-77
2021/09/25 11:13:57;;;;;;;;;16.75;11.75;;;;;;;;5064071;27;45554;-78
2021/09/25 11:16:42;;;;;;;;;21.00;18.50;;;;;;;;5065754;27;45561;-77
2021/09/25 11:19:08;;;;;;;;;21.25;17.50;;;;;;;;5067212;27;45872;-77
2021/09/25 11:21:34;;;;;;;;;18.00;16.50;;;;;;;;5069521;27;45617;-77
2021/09/25 11:23:59;;;;;;;;;18.75;16.00;;;;;;;;5074602;27;46344;-78
2021/09/25 11:26:24;;;;;;;;;14.33;14.33;;;;;;;;5070155;27;49447;-77
2021/09/25 11:28:50;;;;;;;;;18.75;17.00;;;;;;;;5073277;27;46328;-78
2021/09/25 11:31:15;;;;;;;;;15.50;14.00;;;;;;;;5070409;27;45661;-78
2021/09/25 11:33:40;;;;;;;;;18.00;15.33;;;;;;;;5065148;27;45773;-77
2021/09/25 11:36:06;;;;;;;;;18.33;14.33;;;;;;;;5067829;27;45785;-78
2021/09/25 11:38:31;;;;;;;;;12.25;12.25;;;;;;;;5065439;27;45590;-77
2021/09/25 11:40:58;;;;;;;;;17.67;15.00;;;;;;;;5063901;27;46283;-78
2021/09/25 11:43:23;;;;;;;;;16.25;14.25;;;;;;;;5070576;27;47304;-78
2021/09/25 11:45:50;;;;;;;;;17.25;15.00;;;;;;;;5064575;27;45696;-78
2021/09/25 11:48:18;;;;;;;;;13.25;12.75;;;;;;;;5071493;27;46404;-77
2021/09/25 11:50:45;;;;;;;;;13.25;13.00;;;;;;;;5071482;27;45836;-79
2021/09/25 11:53:12;;;;;;;;;17.75;14.75;;;;;;;;5068895;27;47910;-78
2021/09/25 11:55:38;;;;;;;;;16.00;14.50;;;;;;;;5068566;27;47015;-78
2021/09/25 11:58:05;;;;;;;;;15.25;13.25;;;;;;;;5067614;27;46343;-78
2021/09/25 12:00:38;;;;;;;;;15.50;12.00;;;;;;;;5068483;27;45763;-78
2021/09/25 12:03:05;;;;;;;;;15.00;12.75;;;;;;;;5070595;27;45913;-78
2021/09/25 12:05:30;;;;;;;;;23.00;19.75;;;;;;;;5066350;27;45534;-78
2021/09/25 12:07:56;;;;;;;;;19.75;17.00;;;;;;;;5089213;27;45581;-78
2021/09/25 12:10:24;;;;;;;;;16.00;14.25;;;;;;;;5070097;27;45598;-78
2021/09/25 12:12:54;;;;;;;;;20.00;15.50;;;;;;;;5059964;27;45595;-77
2021/09/25 12:15:27;;;;;;;;;16.00;13.75;;;;;;;;5068845;27;45494;-78
2021/09/25 12:18:14;;;;;;;;;19.00;16.25;;;;;;;;5072622;27;45530;-78
2021/09/25 12:20:44;;;;;;;;;17.50;15.50;;;;;;;;5066029;27;45731;-78
2021/09/25 12:23:10;;;;;;;;;15.25;13.50;;;;;;;;5071798;27;45918;-79
2021/09/25 12:25:40;;;;;;;;;16.00;15.25;;;;;;;;5068515;27;45630;-78
2021/09/25 12:28:23;;;;;;;;;17.00;15.75;;;;;;;;5068887;27;45555;-78
2021/09/25 12:30:48;;;;;;;;;18.75;14.50;;;;;;;;5066997;27;45581;-78
2021/09/25 12:33:16;;;;;;;;;12.00;11.25;;;;;;;;5065225;27;45906;-78
2021/09/25 12:35:42;;;;;;;;;16.25;14.50;;;;;;;;5068832;27;45555;-78
2021/09/25 12:38:12;;;;;;;;;12.75;11.75;;;;;;;;5068292;27;45600;-78
2021/09/25 12:40:41;;;;;;;;;15.25;13.00;;;;;;;;5070936;27;45861;-79
2021/09/25 12:43:08;;;;;;;;;12.75;11.25;;;;;;;;5068564;27;46711;-78
2021/09/25 12:45:33;;;;;;;;;14.75;13.00;;;;;;;;5070434;27;45622;-78
2021/09/25 12:48:11;;;;;;;;;14.67;13.33;;;;;;;;5071583;27;45682;-78
2021/09/25 12:50:45;;;;;;;;;13.50;12.75;;;;;;;;5434762;22;47026;-78
2021/09/25 12:53:14;;;;;;;;;16.75;14.50;;;;;;;;5068497;27;45869;-78
2021/09/25 12:55:39;;;;;;;;;16.25;13.75;;;;;;;;5065602;27;45677;-79
2021/09/25 12:58:05;;;;;;;;;18.00;13.00;;;;;;;;5069909;27;45635;-79
2021/09/25 13:00:30;;;;;;;;;14.33;14.33;;;;;;;;5065190;27;45493;-78
2021/09/25 13:03:00;;;;;;;;;14.00;12.50;;;;;;;;5055258;27;47052;-78
2021/09/25 13:05:26;;;;;;;;;16.75;15.00;;;;;;;;5068018;27;45744;-78
2021/09/25 13:07:52;;;;;;;;;14.25;12.25;;;;;;;;5049957;27;45568;-78
2021/09/25 13:10:20;;;;;;;;;15.50;13.75;;;;;;;;5070666;27;46488;-78
2021/09/25 13:12:46;;;;;;;;;15.00;14.75;;;;;;;;5066931;27;46161;-78
2021/09/25 13:15:11;;;;;;;;;17.00;15.75;;;;;;;;5070345;27;46302;-79
2021/09/25 13:17:38;;;;;;;;;13.33;13.00;;;;;;;;5067613;27;45485;-79
2021/09/25 13:20:04;;;;;;;;;15.75;15.00;;;;;;;;5048454;27;45782;-79
2021/09/25 13:22:29;;;;;;;;;18.00;14.75;;;;;;;;5066515;27;48094;-78
2021/09/25 13:24:57;;;;;;;;;12.00;10.50;;;;;;;;5066295;27;46001;-78
2021/09/25 13:27:22;;;;;;;;;12.75;12.00;;;;;;;;5070223;27;45429;-78
2021/09/25 13:29:47;;;;;;;;;13.75;13.25;;;;;;;;5052293;27;45602;-78
2021/09/25 13:34:42;;;;;;;;;10.75;10.75;;;;;;;;5083065;22;54478;-79
2021/09/25 13:37:08;;;;;;;;;14.25;13.25;;;;;;;;5065690;27;48087;-79
2021/09/25 13:39:33;;;;;;;;;14.00;11.75;;;;;;;;5065110;27;45576;-77
2021/09/25 13:41:58;;;;;;;;;15.00;14.25;;;;;;;;5081955;27;45594;-78
2021/09/25 13:44:24;;;;;;;;;13.50;13.50;;;;;;;;5076495;27;45493;-78
2021/09/25 13:46:49;;;;;;;;;15.50;11.75;;;;;;;;5063634;27;45712;-78
2021/09/25 13:49:15;;;;;;;;;14.25;11.75;;;;;;;;5062720;27;46231;-78
2021/09/25 13:51:40;;;;;;;;;15.00;11.00;;;;;;;;5062071;27;45763;-77
2021/09/25 13:54:06;;;;;;;;;13.25;11.75;;;;;;;;5068405;27;45763;-77
2021/09/25 13:56:31;;;;;;;;;12.00;11.75;;;;;;;;5063213;27;49511;-77
2021/09/25 13:58:56;;;;;;;;;14.00;11.75;;;;;;;;5065293;27;45765;-78
2021/09/25 14:01:25;;;;;;;;;15.75;14.75;;;;;;;;5067079;27;46782;-78
2021/09/25 14:03:50;;;;;;;;;14.75;12.50;;;;;;;;5069098;27;45704;-77
2021/09/25 14:06:15;;;;;;;;;15.50;13.25;;;;;;;;5073703;27;45576;-78
2021/09/25 14:08:41;;;;;;;;;14.00;13.50;;;;;;;;5067576;27;46606;-77
2021/09/25 14:11:07;;;;;;;;;13.00;12.00;;;;;;;;5064384;27;45633;-77
2021/09/25 14:13:32;;;;;;;;;12.50;12.00;;;;;;;;5069725;27;45625;-78
2021/09/25 14:15:57;;;;;;;;;12.50;12.00;;;;;;;;5064455;27;45513;-77
2021/09/25 14:18:22;;;;;;;;;14.67;13.33;;;;;;;;5069689;27;45763;-77
2021/09/25 14:20:48;;;;;;;;;15.25;11.75;;;;;;;;5067062;27;46526;-78
2021/09/25 14:23:13;;;;;;;;;14.33;14.33;;;;;;;;5075084;27;46291;-77
2021/09/25 14:25:41;;;;;;;;;11.25;11.25;;;;;;;;5069403;27;45948;-77
2021/09/25 14:28:07;;;;;;;;;15.75;15.25;;;;;;;;5065288;27;46542;-77
2021/09/25 14:30:32;;;;;;;;;13.25;11.75;;;;;;;;5069365;27;46092;-77